ヤンゴン国際空港の過去48時間の天気

ヤンゴン国際空港 (Yangon)

現在時刻: 10/1 22:46 +0630 (10/1 16:16 UTC) 以下の時間は現地時間です。

過去48時間のMETAR気象情報
時間 風向 風速(m/s) 視程 気温(℃) 湿度(%) 気圧(hPa) 天気現象
1 22:00 東南東 2 6000m 25 89 1006
1 21:30 2 6000m 26 94 1006
1 21:00 南南東 2 6000m 26 94 1006
1 20:30 2 6000m 26 94 1006
1 20:00 東南東 2 7000m 26 94 1006
1 19:30 南南東 3 7000m 26 94 1005
1 19:00 3 7000m 26 94 1005
1 18:30 東南東 3 7000m 26 94 1005
1 18:00 3 7000m 27 94 1004
1 17:30 南南東 4 7000m 27 94 1004
1 17:00 西 3 7000m 27 94 1003
1 16:30 南南西 4 7000m 28 84 1003
1 16:00 4 7000m 28 84 1003
1 15:30 4 7000m 28 84 1003
1 15:00 4 7000m 29 84 1003
1 14:30 3 7000m 28 84 1004
1 14:00 南東 3 7000m 28 84 1004
1 13:30 2 7000m 28 84 1004
1 13:00 3 7000m 28 84 1005
1 12:30 南南東 3 7000m 27 94 1006
1 12:00 3 7000m 27 94 1006
1 11:30 3 7000m 27 94 1007 弱い雨
1 11:00 3 7000m 29 84 1007
1 10:30 4 7000m 29 84 1007
1 10:00 4 7000m 29 84 1007
1 09:30 南南東 3 7000m 28 84 1007
1 09:00 東南東 2 7000m 28 84 1007
1 08:30 4 6000m 27 84 1007
1 08:00 東南東 3 6000m 26 94 1006
1 07:30 南南東 3 6000m 26 94 1006
1 07:00 静穏 0 5000m 25 100 1006
1 06:30 東南東 2 6000m 25 94 1005
1 06:00 1 5000m 25 94 1005 もや
1 05:30 2 6000m 25 94 1005
1 05:00 1 6000m 26 94 1004
1 04:30 2 6000m 26 94 1004
1 04:00 東北東 2 6000m 26 94 1004
1 03:30 東北東 2 6000m 26 94 1004
1 03:00 北東 1 6000m 26 94 1004
1 02:30 南東 2 6000m 26 94 1005
1 02:00 南東 1 6000m 26 94 1005
1 01:30 南南東 1 7000m 26 94 1005
1 01:00 南東 2 7000m 26 94 1005
1 00:30 東南東 2 7000m 26 89 1005
1 00:00 南南西 2 6000m 26 89 1006
30 23:30 南南西 1 6000m 26 89 1006
30 23:00 南西 1 6000m 26 94 1006
30 22:30 南南東 3 6000m 26 94 1007
30 22:00 南東 1 7000m 26 94 1006
30 21:30 1 6000m 26 94 1006
30 20:00 南東 2 6000m 26 94 1005
30 19:30 南東 3 6000m 26 94 1004
30 19:00 南南東 2 6000m 26 94 1004
30 18:30 東南東 3 6000m 26 94 1004
30 18:00 南南東 3 6000m 26 94 1003
30 17:30 南東 3 6000m 26 100 1003 霧雨
30 17:00 東南東 3 6000m 26 100 1003 霧雨
30 16:30 南西 1 5000m 26 94 1003 弱い雨
30 16:00 5 6000m 28 84 1003
30 15:30 南南西 3 6000m 28 84 1003
30 15:00 南南西 5 6000m 28 84 1003
30 14:30 5 6000m 27 89 1003 弱い雨
30 14:00 南東 4 6000m 29 79 1004
30 13:30 3 6000m 29 79 1005
30 13:00 4 6000m 28 84 1005
30 12:30 3 6000m 28 84 1006
30 12:00 3 6000m 28 84 1006
30 11:30 3 6000m 27 89 1006
30 11:00 南南東 3 6000m 27 89 1007
30 10:30 南南東 3 6000m 27 89 1007 霧雨
30 10:00 南南東 4 6000m 25 100 1007 霧雨
30 09:30 南南東 4 6000m 25 100 1007 弱い雨
30 09:00 南南東 2 7000m 25 100 1007 霧雨
30 08:30 南南東 2 6000m 26 94 1007
30 07:30 3 5000m 25 100 1005 弱い雨
30 07:00 西南西 4 5000m 25 100 1006 弱い雨
30 06:30 南南西 4 5000m 25 100 1006 弱い雨
30 06:00 南南東 4 5000m 25 100 1005 弱い雨
30 05:30 西 3 5000m 25 100 1005 弱い雨
30 05:00 西 4 6000m 25 100 1004
30 04:30 西 4 6000m 25 100 1004
30 04:00 西南西 5 5000m 25 100 1004 弱い雨
30 03:00 西南西 5 2000m 25 100 1004 強い雨
30 02:30 北東 2 7000m 26 94 1004
30 02:00 北北東 2 7000m 26 94 1004
30 01:30 北北東 2 7000m 26 94 1004
30 01:00 1 7000m 26 94 1005
30 00:30 北北東 1 7000m 26 94 1005
30 00:00 北東 1 7000m 26 94 1006
29 23:30 北東 1 7000m 26 94 1006
29 23:00 1 7000m 26 94 1006
VYYY 011530Z 11003KT 6000 FEW020 25/23 Q1006 NOSIG
VYYY 011500Z 17004KT 6000 FEW020 26/25 Q1006 NOSIG
VYYY 011430Z 15004KT 6000 FEW020 26/25 Q1006 NOSIG
VYYY 011400Z 17004KT 6000 FEW020 26/25 Q1006 NOSIG
VYYY 011330Z 12004KT 7000 SCT015 FEW020CB SCT120 26/25 Q1006
VYYY 011300Z 16005KT 7000 SCT015 FEW020CB SCT120 26/25 Q1005
VYYY 011230Z 17005KT 7000 SCT015 FEW020CB SCT120 26/25 Q1005
VYYY 011200Z 12005KT 7000 SCT015 FEW020CB SCT120 26/25 Q1005
VYYY 011130Z 18005KT 7000 SCT015 FEW020CB SCT110 27/26 Q1004
VYYY 011100Z 16008KT 7000 FEW018 SCT120 27/26 Q1004
VYYY 011030Z 26005KT 7000 FEW018 SCT120 27/26 Q1003
VYYY 011000Z 20007KT 7000 SCT018 FEW025TCU BKN110 28/25 Q1003
VYYY 010930Z 18007KT 7000 SCT018 FEW025TCU BKN110 28/25 Q1003
VYYY 010900Z 18007KT 7000 BKN015 FEW020CB OVC100 28/25 Q1003
VYYY 010830Z 18007KT 7000 BKN015 FEW020CB OVC100 29/26 Q1003 TEMPO 4000 RA
VYYY 010800Z 18005KT 7000 BKN015 FEW020CB OVC100 28/25 Q1004 TEMPO 4000 RA
VYYY 010730Z 14005KT 7000 BKN015 FEW020CB OVC100 28/25 Q1004 TEMPO 4000 RA
VYYY 010700Z 18003KT 7000 BKN015 FEW020CB OVC100 28/25 Q1004 TEMPO 4000 RA
VYYY 010630Z 17005KT 7000 BKN015 FEW020CB OVC100 28/25 Q1005 TEMPO 4000 RA
VYYY 010600Z 16005KT 7000 BKN015 FEW020CB OVC100 27/26 Q1006
VYYY 010530Z 18005KT 7000 BKN015 FEW020CB OVC100 27/26 Q1006
VYYY 010500Z 18005KT 7000 -RA BKN015 FEW020CB OVC100 27/26 Q1007
VYYY 010430Z 18005KT 7000 BKN015 FEW020CB OVC100 29/26 Q1007
VYYY 010400Z 18008KT 7000 BKN015 FEW020CB OVC100 29/26 Q1007
VYYY 010330Z 18008KT 7000 BKN015 FEW020CB OVC100 29/26 Q1007
VYYY 010300Z 16006KT 7000 BKN016 FEW020TCU BKN100 28/25 Q1007
VYYY 010230Z 12004KT 7000 BKN016 FEW020CB BKN100 28/25 Q1007
VYYY 010200Z 17008KT 6000 BKN016 FEW020CB BKN100 27/24 Q1007
VYYY 010130Z 12006KT 6000 BKN015 FEW020CB BKN100 26/25 Q1006
VYYY 010100Z 15005KT 6000 BKN015 FEW020CB BKN100 26/25 Q1006
VYYY 010030Z 00000KT 5000 BKN015 FEW020CB BKN100 25/25 Q1006
VYYY 010000Z 12004KT 6000 BKN015 BKN110 25/24 Q1005
VYYY 302330Z 09002KT 5000 BR BKN015 BKN100 25/24 Q1005
VYYY 302300Z 09003KT 6000 SCT015 BKN100 25/24 Q1005
VYYY 302230Z 09002KT 6000 BKN018 FEW020CB BKN100 26/25 Q1004
VYYY 302200Z 08003KT 6000 BKN018 FEW025CB BKN100 26/25 Q1004
VYYY 302130Z 06004KT 6000 BKN018 FEW025CB BKN100 26/25 Q1004
VYYY 302100Z 07003KT 6000 BKN018 FEW025CB BKN110 26/25 Q1004
VYYY 302030Z 04002KT 6000 SCT020 SCT110 26/25 Q1004
VYYY 302000Z 14003KT 6000 SCT020 SCT110 26/25 Q1005
VYYY 301930Z 13002KT 6000 SCT020 SCT110 26/25 Q1005
VYYY 301900Z 15002KT 7000 SCT020 SCT110 26/25 Q1005
VYYY 301830Z 14004KT 7000 SCT020 SCT110 26/25 Q1005
VYYY 301800Z 12004KT 7000 SCT020 SCT110 26/24 Q1005
VYYY 301730Z 21003KT 6000 SCT020 SCT110 26/24 Q1006
VYYY 301700Z 21002KT 6000 SCT110 26/24 Q1006
VYYY 301630Z 23002KT 6000 SCT110 26/25 Q1006
VYYY 301600Z 16006KT 6000 SCT016 FEW020TCU SCT110 26/25 Q1007
VYYY 301530Z 13002KT 7000 SCT110 26/25 Q1006
VYYY 301500Z 17002KT 6000 SCT018 FEW025CB SCT110 26/25 Q1006
VYYY 301330Z 14004KT 6000 BKN015 FEW020CB BKN100 26/25 Q1005
VYYY 301300Z 14005KT 6000 BKN015 FEW020CB BKN100 26/25 Q1004
VYYY 301230Z 16003KT 6000 BKN015 FEW020CB BKN100 26/25 Q1004
VYYY 301200Z 12005KT 6000 BKN015 FEW018CB BKN100 26/25 Q1004
VYYY 301130Z 16005KT 6000 BKN015 FEW018CB BKN100 26/25 Q1003
VYYY 301100Z 14005KT 6000 DZ BKN012 FEW018CB OVC100 26/26 Q1003
VYYY 301030Z 12005KT 6000 DZ BKN012 FEW016CB OVC100 26/26 Q1003
VYYY 301000Z 23002KT 5000 -RA BKN012 FEW016CB OVC100 26/25 Q1003
VYYY 300930Z 17009KT 6000 BKN012 FEW016CB OVC100 28/25 Q1003
VYYY 300900Z 20006KT 6000 BKN015 FEW018CB BKN100 28/25 Q1003
VYYY 300830Z 20009KT 6000 BKN015 FEW018CB BKN100 28/25 Q1003
VYYY 300800Z 19009KT 6000 -RA BKN013 FEW018CB OVC100 27/25 Q1003
VYYY 300730Z 14007KT 6000 BKN016 FEW020CB BKN100 29/25 Q1004
VYYY 300700Z 19006KT 6000 BKN016 FEW020CB BKN100 29/25 Q1005
VYYY 300630Z 17007KT 6000 BKN015 FEW020CB OVC100 28/25 Q1005
VYYY 300600Z 19006KT 6000 BKN015 FEW020CB OVC100 28/25 Q1006
VYYY 300530Z 17005KT 6000 BKN014 FEW018CB OVC100 28/25 Q1006
VYYY 300500Z 17006KT 6000 BKN014 FEW018CB OVC100 27/25 Q1006
VYYY 300430Z 16005KT 6000 BKN014 FEW018CB OVC100 27/25 Q1007
VYYY 300400Z 16006KT 6000 DZ BKN014 FEW018CB OVC100 27/25 Q1007
VYYY 300330Z 15007KT 6000 DZ BKN014 FEW018CB OVC100 25/25 Q1007
VYYY 300300Z 16007KT 6000 -RA BKN014 FEW018CB OVC100 25/25 Q1007 BECMG FM 0300 TL0400 4000 -RA
VYYY 300230Z 15003KT 7000 DZ BKN018 FEW020CB OVC100 25/25 Q1007
VYYY 300200Z 16004KT 6000 BKN013 FEW018CB OVC090 26/25 Q1007
VYYY 300100Z 19006KT 5000 -RA BKN01 FEW016CB OVC080 25/25 Q1005 TEMPO 4000 RA
VYYY 300030Z 25008KT 5000 -RA BKN010 FEW016CB OVC080 25/25 Q1006 TEMPO 4000 RA
VYYY 300000Z 21008KT 5000 -RA BKN010 FEW016CB OVC080 25/25 Q1006 TEMPO 4000 RA
VYYY 292330Z 16008KT 5000 -RA BKN01 FEW016CB OVC080 25/25 Q1005 TEMPO 4000 RA
VYYY 292300Z 28006KT 5000 -RA BKN013 FEW018CB BKN090 25/25 Q1005 TEMPO 4000 RA
VYYY 292230Z 26007KT 6000 BKN013 FEW018CB BKN090 25/25 Q1004 TEMPO 4000 RA
VYYY 292200Z 26008KT 6000 BKN013 FEW018CB BKN090 25/25 Q1004 TEMPO 4000 RA
VYYY 292130Z 25009KT 5000 -RA BKN013 FEW018CBCB BKN090 25/25 Q1004 TEMPO 4000 RA
VYYY 292030Z 25009KT 2000 +RA BKN010 FEW016CBCB BKN080 25/25 Q1004 TEMPO 4000 RA
VYYY 292000Z 05003KT 7000 BKN020 FEW025CB BKN110 26/25 Q1004 TEMPO 6000 -RA
VYYY 291930Z 03003KT 7000 BKN020 FEW025CB BKN110 26/25 Q1004 TEMPO 6000 -RA
VYYY 291900Z 02003KT 7000 SCT020 FEW025CB BKN110 26/25 Q1004
VYYY 291830Z 36002KT 7000 SCT020 FEW030CB SCT120 26/25 Q1005
VYYY 291800Z 02001KT 7000 SCT020 FEW030CB SCT120 26/25 Q1005
VYYY 291730Z 05001KT 7000 SCT020 FEW030CB SCT120 26/25 Q1006
VYYY 291700Z 04002KT 7000 SCT020 FEW030CB SCT120 26/25 Q1006
VYYY 291630Z 01001KT 7000 SCT020 FEW030CB SCT120 26/25 Q1006